Time;durP1;ratioP1;P1;durP2;ratioP2;P2;SDS_P1;SDS_P2;PMS_P1;PMS_P2;Temp;Humidity;BMP_temperature;BMP_pressure;BME280_temperature;BME280_humidity;BME280_pressure;Samples;Min_cycle;Max_cycle;Signal;HPM_P1;HPM_P2
2022/07/10 00:00:25;;;;;;;2.85;1.67;;;13.90;99.90;;;;;;7387164;19;20313;-82
2022/07/10 00:02:52;;;;;;;2.25;1.80;;;13.90;99.90;;;;;;7389222;19;20344;-78
2022/07/10 00:05:18;;;;;;;2.33;1.67;;;13.90;99.90;;;;;;7388175;19;20427;-81
2022/07/10 00:07:44;;;;;;;2.90;1.70;;;14.00;99.90;;;;;;7387749;19;20329;-83
2022/07/10 00:10:09;;;;;;;4.13;1.90;;;13.80;99.90;;;;;;7385693;19;20718;-78
2022/07/10 00:12:35;;;;;;;2.23;1.50;;;13.80;99.90;;;;;;7390277;19;20317;-79
2022/07/10 00:15:01;;;;;;;3.20;1.30;;;13.70;99.90;;;;;;7388029;19;20312;-82
2022/07/10 00:17:27;;;;;;;3.88;1.23;;;13.80;99.90;;;;;;7388719;19;21722;-80
2022/07/10 00:19:52;;;;;;;2.40;1.20;;;13.70;99.90;;;;;;7388009;19;20673;-84
2022/07/10 00:22:18;;;;;;;6.10;1.38;;;13.70;99.90;;;;;;7389913;19;20343;-79
2022/07/10 00:24:44;;;;;;;2.47;1.00;;;13.70;99.90;;;;;;7388542;19;20332;-78
2022/07/10 00:27:09;;;;;;;1.67;1.13;;;13.70;99.90;;;;;;7385876;19;20344;-78
2022/07/10 00:29:35;;;;;;;1.27;1.10;;;13.70;99.90;;;;;;7385801;19;20313;-79
2022/07/10 00:32:00;;;;;;;4.00;1.30;;;13.60;99.90;;;;;;7383280;19;20304;-79
2022/07/10 00:34:26;;;;;;;2.20;1.03;;;13.60;99.90;;;;;;7382796;19;20690;-82
2022/07/10 00:36:51;;;;;;;1.88;1.30;;;13.60;99.90;;;;;;7382559;19;20351;-76
2022/07/10 00:39:17;;;;;;;1.43;1.07;;;13.70;99.90;;;;;;7383779;19;20340;-77
2022/07/10 00:41:42;;;;;;;1.23;1.13;;;13.70;99.90;;;;;;7382454;19;20353;-77
2022/07/10 00:44:08;;;;;;;1.30;1.00;;;13.70;99.90;;;;;;7382251;19;20377;-77
2022/07/10 00:46:35;;;;;;;2.45;1.10;;;13.70;99.90;;;;;;7382292;19;20969;-77
2022/07/10 00:49:00;;;;;;;1.80;1.08;;;13.70;99.90;;;;;;7386875;19;20301;-77
2022/07/10 00:51:28;;;;;;;2.22;1.30;;;13.70;99.90;;;;;;7380317;19;20352;-78
2022/07/10 00:53:53;;;;;;;1.70;1.00;;;13.70;99.90;;;;;;7382029;19;20349;-77
2022/07/10 00:56:21;;;;;;;1.00;0.80;;;13.70;99.90;;;;;;7382730;19;20461;-77
2022/07/10 00:58:46;;;;;;;2.63;1.40;;;13.70;99.90;;;;;;7383077;19;20461;-77
2022/07/10 01:01:12;;;;;;;1.73;0.98;;;13.60;99.90;;;;;;7382130;19;20440;-78
2022/07/10 01:03:38;;;;;;;2.73;1.20;;;13.70;99.90;;;;;;7381871;19;20369;-78
2022/07/10 01:06:03;;;;;;;2.13;1.40;;;13.60;99.90;;;;;;7381700;19;20329;-78
2022/07/10 01:08:29;;;;;;;1.60;1.00;;;13.70;99.90;;;;;;7384496;19;20345;-79
2022/07/10 01:10:54;;;;;;;3.77;1.20;;;13.70;99.90;;;;;;7382008;19;20320;-78
2022/07/10 01:13:20;;;;;;;1.85;1.00;;;13.60;99.90;;;;;;7379900;19;20364;-78
2022/07/10 01:15:46;;;;;;;1.20;1.10;;;13.60;99.90;;;;;;7381123;19;20344;-77
2022/07/10 01:18:12;;;;;;;2.15;1.27;;;13.70;99.90;;;;;;7381581;19;20380;-77
2022/07/10 01:20:38;;;;;;;1.33;1.15;;;13.60;99.90;;;;;;7380833;19;20305;-77
2022/07/10 01:23:03;;;;;;;1.27;1.07;;;13.60;99.90;;;;;;7380675;19;20342;-79
2022/07/10 01:25:29;;;;;;;1.85;1.17;;;13.60;99.90;;;;;;7380830;19;20312;-78
2022/07/10 01:27:54;;;;;;;1.10;0.90;;;13.60;99.90;;;;;;7381337;19;20320;-77
2022/07/10 01:30:20;;;;;;;1.67;1.00;;;13.60;99.90;;;;;;7381870;19;20447;-80
2022/07/10 01:32:46;;;;;;;2.10;1.33;;;13.50;99.90;;;;;;7379458;19;20395;-77
2022/07/10 01:35:12;;;;;;;2.80;1.40;;;13.60;99.90;;;;;;7382047;19;20872;-77
2022/07/10 01:37:41;;;;;;;2.93;1.20;;;13.60;99.90;;;;;;7381403;19;20319;-75
2022/07/10 01:40:07;;;;;;;2.45;1.40;;;13.40;99.90;;;;;;7381658;19;20308;-77
2022/07/10 01:42:33;;;;;;;2.13;1.42;;;13.40;99.90;;;;;;7378430;19;20323;-77
2022/07/10 01:44:58;;;;;;;2.70;1.80;;;13.40;99.90;;;;;;7378223;19;20316;-79
2022/07/10 01:47:25;;;;;;;2.97;1.30;;;13.30;99.90;;;;;;7381517;19;20360;-77
2022/07/10 01:49:52;;;;;;;3.78;1.45;;;13.30;99.90;;;;;;7380871;19;20414;-77
2022/07/10 01:52:18;;;;;;;1.60;1.30;;;13.30;99.90;;;;;;7382047;19;20313;-80
2022/07/10 01:54:43;;;;;;;3.42;1.45;;;13.30;99.90;;;;;;7379169;19;20368;-78
2022/07/10 01:57:09;;;;;;;2.70;1.33;;;13.30;99.90;;;;;;7378304;19;20771;-77
2022/07/10 01:59:35;;;;;;;2.07;1.40;;;13.30;99.90;;;;;;7381568;19;20325;-77
2022/07/10 02:02:00;;;;;;;1.90;1.20;;;13.20;99.90;;;;;;7377275;19;20312;-77
2022/07/10 02:04:41;;;;;;;2.33;1.40;;;13.30;99.90;;;;;;7378785;19;20344;-76
2022/07/10 02:07:10;;;;;;;2.08;1.45;;;13.30;99.90;;;;;;7378184;19;20324;-77
2022/07/10 02:09:36;;;;;;;1.50;1.20;;;13.30;99.90;;;;;;7382520;19;20380;-77
2022/07/10 02:12:02;;;;;;;3.95;1.30;;;13.30;99.90;;;;;;7380446;19;20388;-77
2022/07/10 02:14:28;;;;;;;1.47;1.23;;;13.30;99.90;;;;;;7378221;19;20340;-77
2022/07/10 02:16:53;;;;;;;3.80;1.40;;;13.30;99.90;;;;;;7378584;19;20360;-75
2022/07/10 02:19:19;;;;;;;2.87;1.43;;;13.30;99.90;;;;;;7380753;19;20738;-77
2022/07/10 02:21:46;;;;;;;1.67;1.27;;;13.20;99.90;;;;;;7379191;19;20332;-78
2022/07/10 02:24:11;;;;;;;1.35;1.25;;;13.20;99.90;;;;;;7377442;19;20312;-77
2022/07/10 02:26:37;;;;;;;3.43;1.30;;;13.20;99.90;;;;;;7379130;19;20939;-77
2022/07/10 02:29:02;;;;;;;3.45;1.50;;;13.20;99.90;;;;;;7380371;19;20835;-77
2022/07/10 02:31:28;;;;;;;3.03;1.40;;;13.30;99.90;;;;;;7377221;19;20328;-77
2022/07/10 02:33:53;;;;;;;1.90;1.50;;;13.10;99.90;;;;;;7374395;19;20385;-77
2022/07/10 02:36:19;;;;;;;3.03;1.48;;;13.10;99.90;;;;;;7377816;19;20344;-77
2022/07/10 02:38:45;;;;;;;2.10;1.47;;;13.10;99.90;;;;;;7375937;19;20707;-77
2022/07/10 02:41:10;;;;;;;2.80;1.40;;;13.20;99.90;;;;;;7377457;19;20431;-76
2022/07/10 02:43:36;;;;;;;3.47;1.42;;;13.20;99.90;;;;;;7376245;19;20847;-77
2022/07/10 02:46:02;;;;;;;2.87;1.40;;;13.10;99.90;;;;;;7377996;19;20304;-79
2022/07/10 02:48:27;;;;;;;2.42;1.45;;;13.20;99.90;;;;;;7375559;19;20336;-76
2022/07/10 02:50:53;;;;;;;2.93;1.60;;;13.20;99.90;;;;;;7378231;19;20419;-77
2022/07/10 02:53:19;;;;;;;3.15;1.38;;;13.20;99.90;;;;;;7375237;19;20808;-77
2022/07/10 02:55:44;;;;;;;2.40;1.40;;;13.20;99.90;;;;;;7378491;19;20424;-76
2022/07/10 02:58:10;;;;;;;2.70;1.13;;;13.20;99.90;;;;;;7377880;19;20340;-78
2022/07/10 03:00:36;;;;;;;2.55;1.30;;;13.20;99.90;;;;;;7379066;19;20757;-77
2022/07/10 03:03:02;;;;;;;2.75;1.42;;;13.20;99.90;;;;;;7376394;19;20318;-77
2022/07/10 03:05:27;;;;;;;2.60;1.30;;;13.20;99.90;;;;;;7375233;19;20760;-77
2022/07/10 03:07:53;;;;;;;1.25;1.15;;;13.20;99.90;;;;;;7376073;19;20337;-77
2022/07/10 03:10:19;;;;;;;2.77;1.20;;;13.20;99.90;;;;;;7378085;19;20390;-75
2022/07/10 03:12:45;;;;;;;1.85;1.25;;;13.20;99.90;;;;;;7372012;19;20832;-77
2022/07/10 03:15:10;;;;;;;1.58;1.30;;;13.20;99.90;;;;;;7375541;19;20408;-78
2022/07/10 03:17:36;;;;;;;2.77;1.40;;;13.20;99.90;;;;;;7377027;19;20743;-77
2022/07/10 03:20:02;;;;;;;1.97;1.50;;;13.20;99.90;;;;;;7375463;19;20333;-78
2022/07/10 03:22:28;;;;;;;2.10;1.50;;;13.10;99.90;;;;;;7377917;19;21213;-79
2022/07/10 03:24:54;;;;;;;2.50;1.25;;;13.10;99.90;;;;;;7374233;19;20487;-77
2022/07/10 03:27:19;;;;;;;1.70;1.38;;;13.10;99.90;;;;;;7374831;19;20319;-78
2022/07/10 03:29:46;;;;;;;2.40;1.30;;;13.20;99.90;;;;;;7376895;19;20324;-77
2022/07/10 03:32:11;;;;;;;2.53;1.40;;;13.10;99.90;;;;;;7375724;19;20415;-77
2022/07/10 03:34:37;;;;;;;2.17;1.33;;;13.10;99.90;;;;;;7375571;19;20388;-77
2022/07/10 03:37:03;;;;;;;1.80;1.27;;;13.00;99.90;;;;;;7375632;19;21139;-78
2022/07/10 03:39:28;;;;;;;3.25;1.63;;;13.00;99.90;;;;;;7375732;19;20340;-77
2022/07/10 03:41:54;;;;;;;3.67;1.40;;;13.10;99.90;;;;;;7377252;19;20406;-77
2022/07/10 03:44:19;;;;;;;1.80;1.30;;;13.10;99.90;;;;;;7361170;19;20340;-77
2022/07/10 03:46:45;;;;;;;2.05;1.20;;;13.10;99.90;;;;;;7372999;19;20329;-77
2022/07/10 03:49:11;;;;;;;5.13;1.37;;;13.10;99.90;;;;;;7374977;19;20335;-80
2022/07/10 03:51:36;;;;;;;2.42;1.30;;;13.10;99.90;;;;;;7375179;19;20649;-77
2022/07/10 03:54:02;;;;;;;2.93;1.43;;;13.10;99.90;;;;;;7375517;19;20315;-78
2022/07/10 03:59:12;;;;;;;2.77;1.43;;;13.10;99.90;;;;;;7274991;19;2004572;-77
2022/07/10 04:01:38;;;;;;;1.33;1.08;;;13.20;99.90;;;;;;7375771;19;20320;-78
2022/07/10 04:04:03;;;;;;;1.90;1.20;;;13.20;99.90;;;;;;7375711;19;20320;-77
2022/07/10 04:06:29;;;;;;;2.08;1.13;;;13.20;99.90;;;;;;7376372;19;20402;-78
2022/07/10 04:08:54;;;;;;;2.83;1.37;;;13.20;99.90;;;;;;7377649;19;20746;-77
2022/07/10 04:11:20;;;;;;;3.23;1.40;;;13.20;99.90;;;;;;7376314;19;20355;-77
2022/07/10 04:13:45;;;;;;;2.42;1.23;;;13.20;99.90;;;;;;7376250;19;20360;-77
2022/07/10 04:16:12;;;;;;;2.00;1.23;;;13.20;99.90;;;;;;7374191;19;20347;-77
2022/07/10 04:18:41;;;;;;;1.73;1.08;;;13.20;99.90;;;;;;7377805;19;20327;-79
2022/07/10 04:21:07;;;;;;;2.63;1.10;;;13.30;99.90;;;;;;7374286;19;20523;-77
2022/07/10 04:23:33;;;;;;;1.58;1.30;;;13.20;99.90;;;;;;7377139;19;20383;-78
2022/07/10 04:25:59;;;;;;;2.88;1.13;;;13.30;99.90;;;;;;7377796;19;20340;-78
2022/07/10 04:28:25;;;;;;;1.67;1.30;;;13.30;99.90;;;;;;7386107;19;20321;-77
2022/07/10 04:30:50;;;;;;;2.40;1.30;;;13.30;99.90;;;;;;7384884;19;21044;-77
2022/07/10 04:33:16;;;;;;;2.27;1.10;;;13.40;99.90;;;;;;7383803;19;20328;-78
2022/07/10 04:35:42;;;;;;;1.20;1.10;;;13.40;99.90;;;;;;7382433;19;20362;-76
2022/07/10 04:38:07;;;;;;;1.40;1.10;;;13.50;99.90;;;;;;7384779;19;20317;-77
2022/07/10 04:40:33;;;;;;;1.63;1.30;;;13.40;99.90;;;;;;7381962;19;20435;-78
2022/07/10 04:42:58;;;;;;;1.27;1.10;;;13.60;99.90;;;;;;7385944;19;20337;-77
2022/07/10 04:45:24;;;;;;;2.72;1.17;;;13.50;99.90;;;;;;7382686;19;20355;-76
2022/07/10 04:47:50;;;;;;;1.80;1.20;;;13.50;99.90;;;;;;7268423;19;20345;-77
2022/07/10 04:50:15;;;;;;;1.50;1.10;;;13.40;99.90;;;;;;7246050;19;20361;-77
2022/07/10 04:52:41;;;;;;;1.83;1.20;;;13.50;99.90;;;;;;7207075;19;20415;-77
2022/07/10 04:55:07;;;;;;;1.97;1.30;;;13.50;99.90;;;;;;7271680;19;20337;-77
2022/07/10 04:57:32;;;;;;;1.20;1.10;;;13.60;99.90;;;;;;7222679;19;20337;-78
2022/07/10 04:59:58;;;;;;;3.30;1.30;;;13.70;99.90;;;;;;7351076;19;20327;-77
2022/07/10 05:02:23;;;;;;;2.28;1.27;;;13.60;99.90;;;;;;7380528;19;20324;-80
2022/07/10 05:04:49;;;;;;;3.40;1.40;;;13.70;99.90;;;;;;7380818;19;20974;-77
2022/07/10 05:07:15;;;;;;;4.80;1.33;;;13.70;99.90;;;;;;7382085;19;20337;-77
2022/07/10 05:09:40;;;;;;;2.13;1.30;;;13.60;99.90;;;;;;7382536;19;20390;-77
2022/07/10 05:12:06;;;;;;;2.08;0.95;;;13.70;99.90;;;;;;7381695;19;20319;-78
2022/07/10 05:14:32;;;;;;;1.73;1.20;;;13.80;99.90;;;;;;7381990;19;20395;-77
2022/07/10 05:16:58;;;;;;;3.20;1.20;;;13.80;99.90;;;;;;7379513;19;20321;-78
2022/07/10 05:19:23;;;;;;;1.30;1.20;;;13.90;99.90;;;;;;7384832;19;21242;-78
2022/07/10 05:21:49;;;;;;;1.52;1.23;;;13.90;99.90;;;;;;7381771;19;20333;-78
2022/07/10 05:24:14;;;;;;;1.33;1.10;;;13.90;99.90;;;;;;7382710;19;20382;-76
2022/07/10 05:26:40;;;;;;;1.40;1.10;;;13.90;99.90;;;;;;7381310;19;20309;-76
2022/07/10 05:29:06;;;;;;;1.55;1.10;;;14.00;99.90;;;;;;7382831;19;20357;-78
2022/07/10 05:31:31;;;;;;;1.43;1.13;;;14.00;99.90;;;;;;7378124;19;20316;-80
2022/07/10 05:33:57;;;;;;;2.47;1.30;;;14.00;99.90;;;;;;7378267;19;21305;-78
2022/07/10 05:36:22;;;;;;;1.17;1.00;;;14.00;99.90;;;;;;7377627;19;20371;-78
2022/07/10 05:38:48;;;;;;;1.33;1.03;;;14.00;99.90;;;;;;7381530;19;20412;-77
2022/07/10 05:41:13;;;;;;;1.50;1.10;;;14.00;99.90;;;;;;7382869;19;20324;-78
2022/07/10 05:43:39;;;;;;;2.13;1.10;;;14.10;99.90;;;;;;7382831;19;20996;-79
2022/07/10 05:46:05;;;;;;;2.27;1.30;;;14.10;99.90;;;;;;7382255;19;20317;-77
2022/07/10 05:48:31;;;;;;;1.98;1.17;;;14.20;99.90;;;;;;7382522;19;20774;-78
2022/07/10 05:50:56;;;;;;;1.92;1.25;;;14.40;99.90;;;;;;7379605;19;20312;-77
2022/07/10 05:53:22;;;;;;;2.77;1.27;;;14.60;99.90;;;;;;7382322;19;20346;-79
2022/07/10 05:55:48;;;;;;;2.80;1.20;;;14.80;99.90;;;;;;7381544;19;20400;-78
2022/07/10 05:58:14;;;;;;;2.72;1.38;;;14.90;99.90;;;;;;7381643;19;20822;-78
2022/07/10 06:00:39;;;;;;;2.90;1.17;;;15.00;99.90;;;;;;7378722;19;20333;-78
2022/07/10 06:03:05;;;;;;;1.85;1.38;;;15.10;99.90;;;;;;6084660;19;10001185;-77
2022/07/10 06:05:31;;;;;;;0.82;0.82;;;15.00;99.90;;;;;;7376411;19;20340;-78
2022/07/10 06:07:56;;;;;;;2.08;1.20;;;15.00;99.90;;;;;;7375927;19;20403;-77
2022/07/10 06:10:22;;;;;;;3.03;1.30;;;15.10;99.90;;;;;;7374390;19;20304;-78
2022/07/10 06:12:48;;;;;;;2.83;1.27;;;15.20;99.90;;;;;;7378005;19;20344;-79
2022/07/10 06:15:13;;;;;;;1.47;1.03;;;15.30;99.90;;;;;;7376888;19;20664;-77
2022/07/10 06:17:39;;;;;;;1.40;1.05;;;15.50;99.90;;;;;;7378574;19;20317;-77
2022/07/10 06:20:05;;;;;;;3.05;1.25;;;15.50;99.90;;;;;;7379415;19;20451;-78
2022/07/10 06:22:30;;;;;;;1.70;1.00;;;15.60;99.90;;;;;;7377369;19;20431;-77
2022/07/10 06:25:06;;;;;;;1.57;1.23;;;15.50;99.90;;;;;;7377909;19;21103;-77
2022/07/10 06:27:32;;;;;;;2.47;1.48;;;15.60;99.90;;;;;;7380018;19;20318;-79
2022/07/10 06:29:57;;;;;;;1.93;1.40;;;15.50;99.90;;;;;;7382119;19;20364;-77
2022/07/10 06:32:24;;;;;;;3.40;1.30;;;15.60;99.90;;;;;;7384533;19;20324;-78
2022/07/10 06:34:52;;;;;;;3.20;1.40;;;15.70;99.90;;;;;;7381597;19;20340;-78
2022/07/10 06:37:18;;;;;;;1.88;1.27;;;15.70;99.90;;;;;;7378907;19;20336;-77
2022/07/10 06:39:43;;;;;;;1.45;1.35;;;15.80;99.90;;;;;;7383382;19;20340;-77
2022/07/10 06:42:09;;;;;;;2.03;1.30;;;15.70;99.90;;;;;;7382368;19;20353;-77
2022/07/10 06:44:39;;;;;;;2.20;1.20;;;15.80;99.90;;;;;;7384539;19;20367;-77
2022/07/10 06:49:50;;;;;;;1.20;1.10;;;16.20;99.90;;;;;;7282826;19;2004391;-79
2022/07/10 06:52:15;;;;;;;3.08;1.42;;;16.10;99.90;;;;;;7383630;19;21114;-78
2022/07/10 06:54:41;;;;;;;2.93;1.30;;;15.70;99.90;;;;;;7381847;19;20391;-79
2022/07/10 06:57:07;;;;;;;2.60;1.30;;;16.00;99.90;;;;;;7383105;19;20307;-79
2022/07/10 06:59:33;;;;;;;2.63;1.40;;;16.10;99.90;;;;;;7385191;19;20353;-78
2022/07/10 07:01:58;;;;;;;1.75;1.10;;;16.20;99.90;;;;;;7382449;19;20360;-78
2022/07/10 07:04:24;;;;;;;1.93;1.10;;;16.20;99.90;;;;;;7381859;19;20332;-77
2022/07/10 07:06:50;;;;;;;2.67;1.40;;;16.00;99.90;;;;;;7382868;19;20344;-79
2022/07/10 07:09:15;;;;;;;2.17;1.23;;;16.10;99.90;;;;;;7380837;19;21337;-77
2022/07/10 07:11:41;;;;;;;1.40;1.20;;;16.20;99.90;;;;;;7384500;19;20341;-77
2022/07/10 07:14:06;;;;;;;2.38;1.42;;;16.30;99.90;;;;;;7382750;19;20358;-78
2022/07/10 07:16:39;;;;;;;3.42;1.48;;;16.10;99.90;;;;;;7385202;19;20384;-78
2022/07/10 07:19:05;;;;;;;2.95;1.30;;;16.30;99.90;;;;;;7384226;19;20313;-77
2022/07/10 07:24:18;;;;;;;1.25;1.15;;;16.40;99.90;;;;;;7282210;19;2004588;-78
2022/07/10 07:26:44;;;;;;;1.83;1.23;;;16.50;99.90;;;;;;7378442;19;20455;-79
2022/07/10 07:29:10;;;;;;;2.70;1.40;;;16.40;99.90;;;;;;7384342;19;20297;-79
2022/07/10 07:31:36;;;;;;;1.90;1.30;;;16.30;99.90;;;;;;7384532;19;20859;-77
2022/07/10 07:34:01;;;;;;;2.53;1.30;;;16.40;99.90;;;;;;7384781;19;20315;-78
2022/07/10 07:36:27;;;;;;;1.98;1.30;;;16.30;99.90;;;;;;7384003;19;20316;-79
2022/07/10 07:38:52;;;;;;;1.93;1.20;;;16.30;99.90;;;;;;7386665;19;20336;-78
2022/07/10 07:41:18;;;;;;;2.33;1.47;;;16.40;99.90;;;;;;7386811;19;20355;-77
2022/07/10 07:43:43;;;;;;;3.72;1.65;;;16.40;99.90;;;;;;7383251;19;20332;-78
2022/07/10 07:46:09;;;;;;;4.30;1.40;;;16.40;99.90;;;;;;7387185;19;20341;-79
2022/07/10 07:48:35;;;;;;;3.35;1.60;;;16.60;99.90;;;;;;7389256;19;20316;-78
2022/07/10 07:51:00;;;;;;;2.38;1.45;;;16.70;99.90;;;;;;7385168;19;20305;-80
2022/07/10 07:53:26;;;;;;;3.17;1.53;;;16.90;99.90;;;;;;7385002;19;20340;-77
2022/07/10 07:55:52;;;;;;;4.55;1.65;;;17.00;99.90;;;;;;7379305;19;20748;-77
2022/07/10 07:58:17;;;;;;;2.22;1.40;;;16.70;99.90;;;;;;7383207;19;20333;-77
2022/07/10 08:00:43;;;;;;;3.43;1.30;;;16.70;99.90;;;;;;7391146;19;20839;-78
2022/07/10 08:03:08;;;;;;;2.30;1.40;;;16.70;99.90;;;;;;7389649;19;20340;-80
2022/07/10 08:05:34;;;;;;;1.70;1.25;;;16.80;99.90;;;;;;7390397;19;21255;-77
2022/07/10 08:08:04;;;;;;;2.53;1.30;;;16.70;99.90;;;;;;7392351;19;20342;-81
2022/07/10 08:10:30;;;;;;;2.40;1.30;;;17.00;99.90;;;;;;7391424;19;20334;-79
2022/07/10 08:12:56;;;;;;;3.72;1.48;;;16.90;99.90;;;;;;7390900;19;20337;-78
2022/07/10 08:15:22;;;;;;;3.53;1.17;;;16.70;99.90;;;;;;7390788;19;20863;-77
2022/07/10 08:17:51;;;;;;;1.45;1.20;;;16.70;99.90;;;;;;7393798;19;20946;-78
2022/07/10 08:20:17;;;;;;;1.50;1.40;;;17.00;99.90;;;;;;7389600;19;20391;-78
2022/07/10 08:22:43;;;;;;;3.63;1.60;;;17.10;99.90;;;;;;7386188;19;20362;-82
2022/07/10 08:25:08;;;;;;;2.42;1.52;;;17.30;99.90;;;;;;7387192;19;20312;-77
2022/07/10 08:27:34;;;;;;;2.73;1.40;;;17.20;99.90;;;;;;7393603;19;21318;-77
2022/07/10 08:30:00;;;;;;;2.58;1.50;;;17.00;99.90;;;;;;7389226;19;20305;-78
2022/07/10 08:32:27;;;;;;;1.57;1.30;;;17.10;99.90;;;;;;7391359;19;20827;-78
2022/07/10 08:34:52;;;;;;;2.42;1.38;;;17.00;99.90;;;;;;7385852;19;20356;-79
2022/07/10 08:37:19;;;;;;;2.30;1.20;;;16.80;99.90;;;;;;7387895;19;20317;-78
2022/07/10 08:39:45;;;;;;;1.30;1.20;;;16.40;99.90;;;;;;7386918;19;20376;-78
2022/07/10 08:42:11;;;;;;;2.22;1.08;;;16.40;99.90;;;;;;7387342;19;20345;-78
2022/07/10 08:44:37;;;;;;;5.47;1.80;;;16.20;99.90;;;;;;7385857;19;20317;-81
2022/07/10 08:47:03;;;;;;;3.47;1.50;;;16.30;99.90;;;;;;7391445;19;20309;-83
2022/07/10 08:49:30;;;;;;;1.52;1.10;;;16.20;99.90;;;;;;7389965;19;20333;-80
2022/07/10 08:52:23;;;;;;;1.67;1.20;;;15.90;99.90;;;;;;7389072;19;20305;-82
2022/07/10 08:54:48;;;;;;;2.15;1.10;;;15.90;99.90;;;;;;7283437;19;2019057;-84
2022/07/10 08:57:14;;;;;;;1.53;1.20;;;15.80;99.90;;;;;;7385261;19;20320;-79
2022/07/10 08:59:39;;;;;;;1.52;1.00;;;15.90;99.90;;;;;;7391193;19;20300;-81
2022/07/10 09:02:05;;;;;;;3.10;1.20;;;16.00;99.90;;;;;;7391428;19;20815;-82
2022/07/10 09:04:31;;;;;;;1.50;1.33;;;16.10;99.90;;;;;;7393259;19;20325;-81
2022/07/10 09:06:56;;;;;;;2.13;1.33;;;16.20;99.90;;;;;;7392166;19;20340;-80
2022/07/10 09:09:23;;;;;;;2.10;1.13;;;16.20;99.90;;;;;;7393321;19;20348;-84
2022/07/10 09:11:49;;;;;;;2.30;1.20;;;16.30;99.90;;;;;;7391939;19;20315;-82
2022/07/10 09:14:16;;;;;;;3.60;1.47;;;16.30;99.90;;;;;;7393861;19;20300;-78
2022/07/10 09:16:43;;;;;;;1.70;1.30;;;16.40;99.90;;;;;;7390487;19;20315;-80
2022/07/10 09:19:22;;;;;;;2.05;1.30;;;16.70;99.90;;;;;;7390162;19;20866;-79
2022/07/10 09:21:49;;;;;;;3.67;1.63;;;17.00;99.90;;;;;;7391320;19;20337;-81
2022/07/10 09:24:19;;;;;;;1.98;1.40;;;17.20;99.90;;;;;;7387268;19;20345;-82
2022/07/10 09:26:54;;;;;;;1.98;1.40;;;17.20;99.90;;;;;;7385042;19;20305;-81
2022/07/10 09:29:20;;;;;;;1.50;1.30;;;17.20;99.90;;;;;;7385552;19;20330;-79
2022/07/10 09:31:55;;;;;;;2.92;1.30;;;17.20;99.90;;;;;;7383012;19;20312;-84
2022/07/10 09:34:37;;;;;;;2.20;1.25;;;17.30;99.90;;;;;;7384987;19;20338;-82
2022/07/10 09:37:18;;;;;;;2.10;1.27;;;17.50;99.90;;;;;;6089331;19;10001564;-79
2022/07/10 09:40:01;;;;;;;3.80;1.60;;;17.70;99.90;;;;;;7286380;19;2004938;-90
2022/07/10 09:42:28;;;;;;;3.65;1.45;;;17.90;99.90;;;;;;7387710;19;20384;-79
2022/07/10 09:45:16;;;;;;;2.53;1.40;;;17.80;99.90;;;;;;7386852;19;20325;-80
2022/07/10 09:47:43;;;;;;;4.43;1.40;;;17.80;99.90;;;;;;7285789;19;2005164;-80
2022/07/10 09:50:25;;;;;;;2.38;1.48;;;17.70;99.90;;;;;;7386781;19;20312;-88
2022/07/10 09:52:55;;;;;;;1.48;1.08;;;17.90;99.90;;;;;;7285109;19;2005833;-81
2022/07/10 09:55:22;;;;;;;3.20;1.50;;;18.20;99.90;;;;;;7386869;19;20313;-82
2022/07/10 09:57:54;;;;;;;3.00;1.50;;;18.20;99.90;;;;;;7387200;19;20300;-83
2022/07/10 10:00:21;;;;;;;1.30;1.20;;;18.00;99.90;;;;;;7383433;19;20384;-80
2022/07/10 10:02:46;;;;;;;1.88;1.50;;;17.80;99.90;;;;;;7383678;19;20336;-80
2022/07/10 10:05:12;;;;;;;2.40;1.30;;;17.70;99.90;;;;;;7382211;19;20316;-80
2022/07/10 10:07:37;;;;;;;1.40;1.20;;;17.70;99.90;;;;;;7383442;19;20864;-81
2022/07/10 10:10:03;;;;;;;1.52;1.20;;;17.60;99.90;;;;;;7383448;19;20313;-84
2022/07/10 10:12:39;;;;;;;2.70;1.30;;;17.40;99.90;;;;;;7386753;19;20320;-79
2022/07/10 10:15:05;;;;;;;4.18;1.30;;;17.00;99.90;;;;;;7386869;19;20315;-79
2022/07/10 10:17:31;;;;;;;2.85;1.40;;;16.90;99.90;;;;;;7386273;19;20303;-82
2022/07/10 10:22:41;;;;;;;2.28;1.40;;;16.40;99.90;;;;;;7282531;19;2004377;-78
2022/07/10 10:25:06;;;;;;;1.50;1.30;;;16.20;99.90;;;;;;7382961;19;20317;-80
2022/07/10 10:27:32;;;;;;;2.40;1.30;;;16.20;99.90;;;;;;7383622;19;20824;-83
2022/07/10 10:29:58;;;;;;;1.57;1.37;;;16.30;99.90;;;;;;7382717;19;21339;-85
2022/07/10 10:32:23;;;;;;;1.70;1.35;;;16.50;99.90;;;;;;7386424;19;20328;-79
2022/07/10 10:34:58;;;;;;;3.45;1.60;;;16.50;99.90;;;;;;7386551;19;20355;-80
2022/07/10 10:37:26;;;;;;;2.10;1.40;;;16.60;99.90;;;;;;7386291;19;20320;-81
2022/07/10 10:39:55;;;;;;;2.70;1.45;;;16.70;99.90;;;;;;7387803;19;20700;-87
2022/07/10 10:42:35;;;;;;;2.80;1.20;;;17.10;99.90;;;;;;7385463;19;21179;-82
2022/07/10 10:45:23;;;;;;;1.95;1.42;;;17.40;99.90;;;;;;7382518;19;20312;-83
2022/07/10 10:47:59;;;;;;;1.92;1.30;;;17.70;99.90;;;;;;7283986;19;2006083;-80
2022/07/10 10:50:39;;;;;;;3.17;1.20;;;17.90;99.90;;;;;;7384085;19;20317;-84
2022/07/10 10:53:11;;;;;;;5.32;1.50;;;18.10;99.90;;;;;;7384701;19;20328;-82
2022/07/10 10:55:37;;;;;;;2.03;1.45;;;18.00;99.90;;;;;;7382050;19;20698;-81
2022/07/10 10:58:14;;;;;;;1.73;1.40;;;17.90;99.90;;;;;;7385487;19;20317;-86
2022/07/10 11:00:42;;;;;;;2.30;1.40;;;18.00;99.90;;;;;;7280304;19;2004723;-79
2022/07/10 11:03:19;;;;;;;1.58;1.23;;;18.20;99.90;;;;;;7384029;19;20352;-85
2022/07/10 11:05:46;;;;;;;3.00;1.48;;;18.60;99.90;;;;;;7281115;19;2004700;-81
2022/07/10 11:08:12;;;;;;;3.67;1.50;;;19.20;99.90;;;;;;7382482;19;20654;-82
2022/07/10 11:10:45;;;;;;;1.80;1.40;;;19.50;99.90;;;;;;7380120;19;20320;-81
2022/07/10 11:13:17;;;;;;;2.65;1.23;;;20.10;99.90;;;;;;7276639;19;2020092;-82
2022/07/10 11:15:47;;;;;;;3.20;1.47;;;20.20;99.90;;;;;;7380722;19;20320;-82
2022/07/10 11:18:14;;;;;;;2.53;1.40;;;19.80;99.90;;;;;;7379300;19;20866;-83
2022/07/10 11:20:50;;;;;;;3.00;1.40;;;19.30;99.90;;;;;;7381287;19;20880;-81
2022/07/10 11:23:53;;;;;;;3.03;1.27;;;18.90;99.90;;;;;;7383329;19;20321;-85
2022/07/10 11:26:34;;;;;;;2.67;1.50;;;18.70;99.90;;;;;;7283590;19;2004781;-82
2022/07/10 11:29:02;;;;;;;2.47;1.50;;;18.70;99.90;;;;;;7382541;19;20347;-83
2022/07/10 11:31:29;;;;;;;3.17;1.70;;;18.60;99.90;;;;;;7385226;19;20329;-86
2022/07/10 11:33:55;;;;;;;1.50;1.25;;;18.60;99.90;;;;;;7387479;19;20840;-82
2022/07/10 11:36:32;;;;;;;1.80;1.50;;;18.70;99.90;;;;;;7400475;19;20379;-82
2022/07/10 11:39:07;;;;;;;2.20;1.53;;;18.80;99.90;;;;;;7402061;19;20354;-79
2022/07/10 11:41:33;;;;;;;3.65;1.40;;;18.90;99.90;;;;;;7400010;19;20309;-86
2022/07/10 11:44:02;;;;;;;3.13;1.50;;;19.30;99.90;;;;;;7398257;19;20347;-82
2022/07/10 11:46:34;;;;;;;4.35;1.30;;;19.60;99.90;;;;;;7395588;19;20911;-80
2022/07/10 11:49:04;;;;;;;2.28;1.00;;;19.60;99.90;;;;;;7399110;19;20341;-80
2022/07/10 11:51:36;;;;;;;1.80;1.30;;;19.90;99.90;;;;;;7397331;19;20444;-80
2022/07/10 11:54:03;;;;;;;3.58;1.48;;;19.80;99.90;;;;;;7397270;19;20327;-81
2022/07/10 11:56:32;;;;;;;2.92;1.40;;;19.90;99.90;;;;;;7398016;19;20332;-83
2022/07/10 11:59:04;;;;;;;2.72;1.40;;;19.90;99.90;;;;;;7398379;19;20345;-84
2022/07/10 12:01:32;;;;;;;2.73;1.40;;;20.00;99.90;;;;;;7396477;19;20379;-86
2022/07/10 12:04:03;;;;;;;2.83;1.42;;;19.90;99.90;;;;;;7397366;19;20344;-80
2022/07/10 12:06:32;;;;;;;2.60;1.42;;;19.90;99.90;;;;;;7396363;19;20352;-82
2022/07/10 12:09:08;;;;;;;2.20;1.20;;;19.90;99.90;;;;;;7395829;19;20336;-85
2022/07/10 12:11:33;;;;;;;2.27;1.20;;;20.00;99.90;;;;;;7395480;19;20308;-84
2022/07/10 12:14:14;;;;;;;2.83;1.42;;;20.20;99.90;;;;;;7395531;19;20370;-82
2022/07/10 12:16:42;;;;;;;3.80;1.20;;;20.10;99.90;;;;;;7392951;19;21082;-84
2022/07/10 12:19:08;;;;;;;2.47;1.40;;;19.70;99.90;;;;;;7398754;19;20407;-81
2022/07/10 12:21:33;;;;;;;3.33;1.40;;;20.10;99.90;;;;;;7396671;19;20816;-82
2022/07/10 12:24:01;;;;;;;2.80;1.30;;;20.10;99.90;;;;;;7392981;19;20654;-83
2022/07/10 12:26:34;;;;;;;2.75;1.23;;;20.10;99.90;;;;;;7393744;19;20396;-83
2022/07/10 12:29:00;;;;;;;3.60;1.30;;;20.30;99.90;;;;;;7394756;19;20339;-81
2022/07/10 12:31:29;;;;;;;2.17;1.35;;;20.40;99.90;;;;;;7392446;19;20663;-82
2022/07/10 12:33:57;;;;;;;2.45;1.13;;;20.30;99.90;;;;;;7392342;19;20350;-79
2022/07/10 12:36:24;;;;;;;2.20;1.40;;;20.70;99.90;;;;;;7392288;19;20360;-80
2022/07/10 12:38:58;;;;;;;3.00;1.20;;;20.60;99.90;;;;;;7393603;19;21018;-81
2022/07/10 12:41:24;;;;;;;2.53;1.35;;;20.60;99.90;;;;;;7392277;19;20315;-83
2022/07/10 12:43:50;;;;;;;2.40;1.20;;;20.10;99.90;;;;;;7393417;19;20997;-82
2022/07/10 12:46:20;;;;;;;3.17;1.52;;;20.10;99.90;;;;;;7387446;19;20305;-80
2022/07/10 12:49:04;;;;;;;3.80;1.20;;;20.00;99.90;;;;;;7383359;19;20324;-83
2022/07/10 12:51:32;;;;;;;2.50;1.60;;;20.50;99.90;;;;;;7385523;19;20332;-81
2022/07/10 12:54:01;;;;;;;3.70;1.30;;;20.80;99.90;;;;;;7387595;19;21152;-84
2022/07/10 12:56:27;;;;;;;2.60;1.40;;;20.70;99.90;;;;;;7385693;19;20884;-79